Time;durP1;ratioP1;P1;durP2;ratioP2;P2;SDS_P1;SDS_P2;PMS_P1;PMS_P2;Temp;Humidity;BMP_temperature;BMP_pressure;BME280_temperature;BME280_humidity;BME280_pressure;Samples;Min_cycle;Max_cycle;Signal;HPM_P1;HPM_P2
2023/10/18 00:01:41;;;;;;;31.13;21.92;;;;;;;;;;5161110;27;20092;-79
2023/10/18 00:04:07;;;;;;;31.25;22.08;;;;;;;;;;5160082;27;20125;-79
2023/10/18 00:06:34;;;;;;;31.95;22.75;;;;;;;;;;5159870;27;20038;-79
2023/10/18 00:09:38;;;;;;;31.65;23.38;;;;;;;;;;5160013;27;20050;-79
2023/10/18 00:11:48;;;;;;;32.88;23.17;;;;;;;;;;5179125;27;20047;-79
2023/10/18 00:14:14;;;;;;;30.73;22.88;;;;;;;;;;5142881;27;20134;-78
2023/10/18 00:16:40;;;;;;;34.45;23.25;;;;;;;;;;5160392;27;20590;-78
2023/10/18 00:19:06;;;;;;;36.67;24.27;;;;;;;;;;5160700;27;20182;-79
2023/10/18 00:21:32;;;;;;;31.98;24.88;;;;;;;;;;5159753;27;20078;-79
2023/10/18 00:23:58;;;;;;;29.42;22.50;;;;;;;;;;5159512;27;20050;-79
2023/10/18 00:26:25;;;;;;;35.58;24.23;;;;;;;;;;5177688;27;20486;-79
2023/10/18 00:28:51;;;;;;;36.50;24.90;;;;;;;;;;5159550;27;20046;-79
2023/10/18 00:31:20;;;;;;;39.95;26.20;;;;;;;;;;5159597;27;20129;-79
2023/10/18 00:33:47;;;;;;;32.30;23.67;;;;;;;;;;5177853;27;20056;-79
2023/10/18 00:36:16;;;;;;;36.17;25.85;;;;;;;;;;5178173;27;20044;-79
2023/10/18 00:38:46;;;;;;;34.22;25.48;;;;;;;;;;5178024;27;20077;-79
2023/10/18 00:41:54;;;;;;;33.72;24.45;;;;;;;;;;5159999;27;20064;-79
2023/10/18 00:44:08;;;;;;;43.50;27.60;;;;;;;;;;5150867;27;20494;-79
2023/10/18 00:46:35;;;;;;;35.15;26.27;;;;;;;;;;5159460;27;20528;-79
2023/10/18 00:49:02;;;;;;;34.70;24.42;;;;;;;;;;5178266;27;20054;-79
2023/10/18 00:51:28;;;;;;;35.40;25.15;;;;;;;;;;5158879;27;20042;-79
2023/10/18 00:53:55;;;;;;;34.05;24.83;;;;;;;;;;5177483;27;20089;-79
2023/10/18 00:56:21;;;;;;;39.92;26.67;;;;;;;;;;5177523;27;20046;-78
2023/10/18 00:58:47;;;;;;;41.60;26.08;;;;;;;;;;5158825;27;20504;-79
2023/10/18 01:01:14;;;;;;;39.78;26.33;;;;;;;;;;5159818;27;20095;-79
2023/10/18 01:03:42;;;;;;;43.00;29.50;;;;;;;;;;5159246;27;20042;-79
2023/10/18 01:06:17;;;;;;;40.60;26.63;;;;;;;;;;5159054;27;20125;-79
2023/10/18 01:08:44;;;;;;;;;;;;;;;;;;5142030;27;20467;-79
2023/10/18 01:11:11;;;;;;;36.35;25.23;;;;;;;;;;5141545;27;19926;-79
2023/10/18 01:13:40;;;;;;;42.28;27.17;;;;;;;;;;5177142;27;20098;-79
2023/10/18 01:16:20;;;;;;;38.65;28.13;;;;;;;;;;5158442;27;20494;-79
2023/10/18 01:18:47;;;;;;;36.63;26.77;;;;;;;;;;5141721;27;20053;-79
2023/10/18 01:21:18;;;;;;;40.47;25.98;;;;;;;;;;5159448;27;20095;-79
2023/10/18 01:23:49;;;;;;;41.55;28.63;;;;;;;;;;5176990;27;20054;-78
2023/10/18 01:26:15;;;;;;;44.35;30.48;;;;;;;;;;5158870;27;20038;-79
2023/10/18 01:28:42;;;;;;;48.60;30.92;;;;;;;;;;5158456;27;20050;-79
2023/10/18 01:31:12;;;;;;;41.90;29.73;;;;;;;;;;5176856;27;20435;-79
2023/10/18 01:33:48;;;;;;;47.42;30.33;;;;;;;;;;5176883;27;20089;-78
2023/10/18 01:36:16;;;;;;;44.40;31.92;;;;;;;;;;5158689;27;20045;-78
2023/10/18 01:38:44;;;;;;;42.22;29.70;;;;;;;;;;5176670;27;20046;-78
2023/10/18 01:41:25;;;;;;;45.70;31.45;;;;;;;;;;5158331;27;20057;-78
2023/10/18 01:43:51;;;;;;;45.58;30.73;;;;;;;;;;5158599;27;20428;-79
2023/10/18 01:46:18;;;;;;;45.22;32.15;;;;;;;;;;5158415;27;20149;-78
2023/10/18 01:48:50;;;;;;;48.05;32.55;;;;;;;;;;5158039;27;20110;-78
2023/10/18 01:51:17;;;;;;;46.08;31.95;;;;;;;;;;5158269;27;20049;-78
2023/10/18 01:53:43;;;;;;;46.88;32.40;;;;;;;;;;5176473;27;20046;-79
2023/10/18 01:56:10;;;;;;;55.60;32.40;;;;;;;;;;5158130;27;20086;-79
2023/10/18 01:58:36;;;;;;;49.97;34.25;;;;;;;;;;5158085;27;20093;-78
2023/10/18 02:01:08;;;;;;;51.90;34.65;;;;;;;;;;5176438;27;20049;-79
2023/10/18 02:03:36;;;;;;;54.92;34.50;;;;;;;;;;5158975;27;20052;-78
2023/10/18 02:06:06;;;;;;;51.30;32.65;;;;;;;;;;5157951;27;20089;-78
2023/10/18 02:08:34;;;;;;;51.58;34.38;;;;;;;;;;5157993;27;20061;-78
2023/10/18 02:11:00;;;;;;;58.13;37.90;;;;;;;;;;5157985;27;20042;-79
2023/10/18 02:13:26;;;;;;;59.67;40.38;;;;;;;;;;5158810;27;20134;-78
2023/10/18 02:15:53;;;;;;;62.20;43.03;;;;;;;;;;5157566;27;20046;-78
2023/10/18 02:18:19;;;;;;;74.97;48.40;;;;;;;;;;5140570;27;20538;-78
2023/10/18 02:20:52;;;;;;;68.93;48.40;;;;;;;;;;5157801;27;20523;-78
2023/10/18 02:23:18;;;;;;;77.35;51.00;;;;;;;;;;5157759;27;20046;-79
2023/10/18 02:25:45;;;;;;;64.20;43.90;;;;;;;;;;5157837;27;20050;-78
2023/10/18 02:28:22;;;;;;;59.53;40.10;;;;;;;;;;5157482;27;20076;-78
2023/10/18 02:31:05;;;;;;;59.33;38.22;;;;;;;;;;5157493;27;20042;-79
2023/10/18 02:33:36;;;;;;;56.65;37.90;;;;;;;;;;5144037;27;20054;-79
2023/10/18 02:36:06;;;;;;;54.72;34.40;;;;;;;;;;5157592;27;20046;-79
2023/10/18 02:38:37;;;;;;;51.05;34.45;;;;;;;;;;5158616;27;20094;-79
2023/10/18 02:41:15;;;;;;;50.17;34.92;;;;;;;;;;5176841;27;20046;-79
2023/10/18 02:43:48;;;;;;;51.70;35.38;;;;;;;;;;5158500;27;20050;-79
2023/10/18 02:46:20;;;;;;;48.03;33.30;;;;;;;;;;5157601;27;20398;-78
2023/10/18 02:48:50;;;;;;;48.65;32.65;;;;;;;;;;5175640;27;20061;-79
2023/10/18 02:51:22;;;;;;;50.63;32.72;;;;;;;;;;5157833;27;20138;-79
2023/10/18 02:53:48;;;;;;;49.55;32.38;;;;;;;;;;5142054;27;20374;-79
2023/10/18 02:56:17;;;;;;;49.05;33.90;;;;;;;;;;5175989;27;20482;-79
2023/10/18 02:58:46;;;;;;;50.10;34.13;;;;;;;;;;5157360;27;20099;-79
2023/10/18 03:01:14;;;;;;;49.13;34.10;;;;;;;;;;5157339;27;20043;-79
2023/10/18 03:03:46;;;;;;;49.20;34.58;;;;;;;;;;5160953;27;20419;-79
2023/10/18 03:06:16;;;;;;;45.70;33.03;;;;;;;;;;5144746;27;20046;-79
2023/10/18 03:08:49;;;;;;;46.72;32.60;;;;;;;;;;5144865;27;20046;-79
2023/10/18 03:11:17;;;;;;;48.97;32.92;;;;;;;;;;5162074;27;20098;-78
2023/10/18 03:13:43;;;;;;;49.35;34.03;;;;;;;;;;5161467;27;20042;-79
2023/10/18 03:18:42;;;;;;;53.65;33.40;;;;;;;;;;5161958;27;20054;-78
2023/10/18 03:21:08;;;;;;;61.00;36.75;;;;;;;;;;5180255;27;20054;-79
2023/10/18 03:23:44;;;;;;;48.38;34.33;;;;;;;;;;5161278;27;20038;-79
2023/10/18 03:26:11;;;;;;;46.72;33.03;;;;;;;;;;5179218;27;20497;-79
2023/10/18 03:28:40;;;;;;;48.78;33.88;;;;;;;;;;5179750;27;20098;-78
2023/10/18 03:31:29;;;;;;;48.88;33.55;;;;;;;;;;5161201;27;20129;-78
2023/10/18 03:36:53;;;;;;;47.05;32.30;;;;;;;;;;5129700;27;20497;-79
2023/10/18 03:39:19;;;;;;;44.42;32.33;;;;;;;;;;5160947;27;20046;-79
2023/10/18 03:41:52;;;;;;;49.53;33.42;;;;;;;;;;5179282;27;20046;-79
2023/10/18 03:44:26;;;;;;;46.67;32.63;;;;;;;;;;5161531;27;20446;-79
2023/10/18 03:47:03;;;;;;;47.13;32.95;;;;;;;;;;5160133;27;20045;-79
2023/10/18 03:51:57;;;;;;;45.92;30.83;;;;;;;;;;5160425;27;20050;-79
2023/10/18 03:54:28;;;;;;;45.20;31.70;;;;;;;;;;5160313;27;20133;-79
2023/10/18 03:56:54;;;;;;;44.38;31.15;;;;;;;;;;5143399;27;20062;-79
2023/10/18 03:59:21;;;;;;;45.03;31.85;;;;;;;;;;5160309;27;20090;-79
2023/10/18 04:04:36;;;;;;;44.38;31.02;;;;;;;;;;5160427;27;20046;-79
2023/10/18 04:07:12;;;;;;;45.65;31.98;;;;;;;;;;5160006;27;20516;-78
2023/10/18 04:09:40;;;;;;;44.42;31.02;;;;;;;;;;5160860;27;20050;-79
2023/10/18 04:12:08;;;;;;;47.53;33.75;;;;;;;;;;5160252;27;20097;-78
2023/10/18 04:14:34;;;;;;;39.85;31.00;;;;;;;;;;5159240;27;20124;-79
2023/10/18 04:17:08;;;;;;;44.67;31.88;;;;;;;;;;5159975;27;20050;-79
2023/10/18 04:19:34;;;;;;;39.97;30.73;;;;;;;;;;5179116;27;20053;-78
2023/10/18 04:22:04;;;;;;;44.17;31.30;;;;;;;;;;5159800;27;20485;-78
2023/10/18 04:24:32;;;;;;;42.05;30.42;;;;;;;;;;5159900;27;20125;-78
2023/10/18 04:27:02;;;;;;;42.13;32.03;;;;;;;;;;5160465;27;20042;-78
2023/10/18 04:29:33;;;;;;;46.22;31.67;;;;;;;;;;5159587;27;20065;-78
2023/10/18 04:31:59;;;;;;;43.88;32.92;;;;;;;;;;5160013;27;20058;-79
2023/10/18 04:34:29;;;;;;;45.10;32.40;;;;;;;;;;5177825;27;20046;-79
2023/10/18 04:36:55;;;;;;;45.10;31.85;;;;;;;;;;5159397;27;20057;-78
2023/10/18 04:39:21;;;;;;;41.95;32.33;;;;;;;;;;5177778;27;20061;-79
2023/10/18 04:41:49;;;;;;;41.72;31.67;;;;;;;;;;5159341;27;20046;-78
2023/10/18 04:44:19;;;;;;;40.15;29.55;;;;;;;;;;5142297;27;20054;-79
2023/10/18 04:46:47;;;;;;;44.10;32.00;;;;;;;;;;5159041;27;20052;-79
2023/10/18 04:56:43;;;;;;;41.78;31.98;;;;;;;;;;5159059;27;20050;-78
2023/10/18 04:59:11;;;;;;;42.85;30.92;;;;;;;;;;5159906;27;20046;-79
2023/10/18 05:04:19;;;;;;;42.30;30.45;;;;;;;;;;5177437;27;20050;-79
2023/10/18 05:06:55;;;;;;;40.90;31.05;;;;;;;;;;5177256;27;20121;-79
2023/10/18 05:09:34;;;;;;;42.33;30.80;;;;;;;;;;5159215;27;20057;-78
2023/10/18 05:12:07;;;;;;;40.15;30.77;;;;;;;;;;5159738;27;20125;-78
2023/10/18 05:14:42;;;;;;;39.90;30.38;;;;;;;;;;5159186;27;20351;-79
2023/10/18 05:17:21;;;;;;;41.65;29.98;;;;;;;;;;5158754;27;20485;-78
2023/10/18 05:19:48;;;;;;;40.03;30.52;;;;;;;;;;5159598;27;20073;-78
2023/10/18 05:22:24;;;;;;;38.60;29.25;;;;;;;;;;5177052;27;20041;-79
2023/10/18 05:27:38;;;;;;;39.83;30.43;;;;;;;;;;5144071;27;20046;-78
2023/10/18 05:30:14;;;;;;;37.80;28.88;;;;;;;;;;5158449;27;20082;-78
2023/10/18 05:33:02;;;;;;;38.33;28.85;;;;;;;;;;5142999;27;20056;-79
2023/10/18 05:35:34;;;;;;;35.10;28.42;;;;;;;;;;5158753;27;20038;-78
2023/10/18 05:38:06;;;;;;;40.63;30.25;;;;;;;;;;5177643;27;20414;-79
2023/10/18 05:43:07;;;;;;;38.13;28.63;;;;;;;;;;5158531;27;20051;-79
2023/10/18 05:45:40;;;;;;;38.70;29.30;;;;;;;;;;5158025;27;20071;-79
2023/10/18 05:48:13;;;;;;;37.92;29.65;;;;;;;;;;5157807;27;20085;-78
2023/10/18 05:50:41;;;;;;;36.00;28.85;;;;;;;;;;5157956;27;20053;-78
2023/10/18 05:53:11;;;;;;;39.00;29.65;;;;;;;;;;5140674;27;20393;-78
2023/10/18 05:55:40;;;;;;;35.30;27.80;;;;;;;;;;5141433;27;20482;-78
2023/10/18 05:58:06;;;;;;;36.00;28.38;;;;;;;;;;5157764;27;20138;-78
2023/10/18 06:00:34;;;;;;;38.22;29.88;;;;;;;;;;5158056;27;20053;-79
2023/10/18 06:03:01;;;;;;;35.45;27.73;;;;;;;;;;5157994;27;20042;-78
2023/10/18 06:05:36;;;;;;;38.55;29.15;;;;;;;;;;5158690;27;20339;-79
2023/10/18 06:08:02;;;;;;;;;;;;;;;;;;5159056;27;20050;-78
2023/10/18 06:10:28;;;;;;;34.72;26.70;;;;;;;;;;5158742;27;19918;-78
2023/10/18 06:13:03;;;;;;;36.20;27.42;;;;;;;;;;5157944;27;20431;-79
2023/10/18 06:15:38;;;;;;;39.08;29.25;;;;;;;;;;5157868;27;20082;-79
2023/10/18 06:18:09;;;;;;;34.53;27.60;;;;;;;;;;5157955;27;20050;-79
2023/10/18 06:20:41;;;;;;;36.63;28.38;;;;;;;;;;5158196;27;20054;-79
2023/10/18 06:23:28;;;;;;;35.53;27.67;;;;;;;;;;5158145;27;20038;-79
2023/10/18 06:25:57;;;;;;;34.25;27.50;;;;;;;;;;5160952;27;20059;-79
2023/10/18 06:28:24;;;;;;;35.15;28.17;;;;;;;;;;5176513;27;20054;-79
2023/10/18 06:30:56;;;;;;;33.42;27.10;;;;;;;;;;5176872;27;20046;-79
2023/10/18 06:33:23;;;;;;;32.38;27.10;;;;;;;;;;5176423;27;20567;-80
2023/10/18 06:35:52;;;;;;;31.38;26.15;;;;;;;;;;5157898;27;20065;-79
2023/10/18 06:38:27;;;;;;;33.30;26.65;;;;;;;;;;5178868;27;20366;-79
2023/10/18 06:41:00;;;;;;;32.78;25.50;;;;;;;;;;5162797;27;20042;-79
2023/10/18 06:43:26;;;;;;;34.00;27.58;;;;;;;;;;5180730;27;20046;-79
2023/10/18 06:45:53;;;;;;;32.58;25.63;;;;;;;;;;5161524;27;20042;-79
2023/10/18 06:48:26;;;;;;;32.47;25.38;;;;;;;;;;5140809;27;20058;-79
2023/10/18 06:50:53;;;;;;;32.15;26.15;;;;;;;;;;5158520;27;20467;-79
2023/10/18 06:53:20;;;;;;;31.50;26.95;;;;;;;;;;5158363;27;20047;-78
2023/10/18 06:55:58;;;;;;;31.33;24.80;;;;;;;;;;5140727;27;20124;-79
2023/10/18 07:01:03;;;;;;;30.10;22.98;;;;;;;;;;5158885;27;20050;-79
2023/10/18 07:03:29;;;;;;;29.20;24.50;;;;;;;;;;5158237;27;20093;-79
2023/10/18 07:06:04;;;;;;;30.15;25.10;;;;;;;;;;5157856;27;20039;-79
2023/10/18 07:08:33;;;;;;;29.90;24.40;;;;;;;;;;5140599;27;20055;-79
2023/10/18 07:11:08;;;;;;;30.52;23.55;;;;;;;;;;5158077;27;20066;-79
2023/10/18 07:13:38;;;;;;;31.98;25.42;;;;;;;;;;5158774;27;20070;-79
2023/10/18 07:16:48;;;;;;;29.15;23.38;;;;;;;;;;5158071;27;20058;-79
2023/10/18 07:21:40;;;;;;;28.10;23.67;;;;;;;;;;5158693;27;20047;-78
2023/10/18 07:24:10;;;;;;;28.55;23.83;;;;;;;;;;5157503;27;20046;-78
2023/10/18 07:26:36;;;;;;;29.85;24.20;;;;;;;;;;5157651;27;20043;-79
2023/10/18 07:29:09;;;;;;;29.38;24.25;;;;;;;;;;5157723;27;20098;-78
2023/10/18 07:31:39;;;;;;;29.35;24.70;;;;;;;;;;5157407;27;20492;-79
2023/10/18 07:34:08;;;;;;;28.30;23.50;;;;;;;;;;5158146;27;20038;-79
2023/10/18 07:36:37;;;;;;;24.85;21.90;;;;;;;;;;5158005;27;20051;-78
2023/10/18 07:39:04;;;;;;;26.13;22.55;;;;;;;;;;5157098;27;20055;-79
2023/10/18 07:41:34;;;;;;;28.40;23.27;;;;;;;;;;5140383;27;20051;-79
2023/10/18 07:44:00;;;;;;;26.27;22.38;;;;;;;;;;5157136;27;20038;-79
2023/10/18 07:46:27;;;;;;;25.88;21.92;;;;;;;;;;5156764;27;20129;-79
2023/10/18 07:49:03;;;;;;;26.75;21.63;;;;;;;;;;5175116;27;20552;-79
2023/10/18 07:51:32;;;;;;;24.38;20.17;;;;;;;;;;5178822;27;20049;-79
2023/10/18 07:53:59;;;;;;;25.08;21.40;;;;;;;;;;5178804;27;20046;-79
2023/10/18 07:56:32;;;;;;;23.95;20.17;;;;;;;;;;5160827;27;20056;-79
2023/10/18 07:59:45;;;;;;;25.85;21.13;;;;;;;;;;5143930;27;20042;-79
2023/10/18 08:04:31;;;;;;;23.10;19.98;;;;;;;;;;5161020;27;20398;-79
2023/10/18 08:06:57;;;;;;;22.15;19.48;;;;;;;;;;5160071;27;20141;-79
2023/10/18 08:09:28;;;;;;;24.73;19.73;;;;;;;;;;5160645;27;20484;-79
2023/10/18 08:11:55;;;;;;;23.95;19.88;;;;;;;;;;5160359;27;20050;-79
2023/10/18 08:14:27;;;;;;;22.23;18.75;;;;;;;;;;5178409;27;20042;-79
2023/10/18 08:16:56;;;;;;;20.15;18.15;;;;;;;;;;5178366;27;20493;-79
2023/10/18 08:19:25;;;;;;;22.38;18.80;;;;;;;;;;5142245;27;20505;-79
2023/10/18 08:22:21;;;;;;;20.77;17.50;;;;;;;;;;5159872;27;20046;-79
2023/10/18 08:24:49;;;;;;;20.25;17.98;;;;;;;;;;5159384;27;20054;-79
2023/10/18 08:27:15;;;;;;;21.55;18.23;;;;;;;;;;5159801;27;20117;-80
2023/10/18 08:29:42;;;;;;;20.58;17.42;;;;;;;;;;5142124;27;20566;-79
2023/10/18 08:32:18;;;;;;;20.67;18.48;;;;;;;;;;5159600;27;20045;-78
2023/10/18 08:34:45;;;;;;;19.85;17.52;;;;;;;;;;5160158;27;20430;-78
2023/10/18 08:37:15;;;;;;;21.33;19.05;;;;;;;;;;5159451;27;20058;-78
2023/10/18 08:39:52;;;;;;;19.58;16.50;;;;;;;;;;5160005;27;20049;-78
2023/10/18 08:42:20;;;;;;;19.58;16.67;;;;;;;;;;5160231;27;20054;-78
2023/10/18 08:44:46;;;;;;;19.55;17.25;;;;;;;;;;5177526;27;20053;-78
2023/10/18 08:47:15;;;;;;;20.83;16.67;;;;;;;;;;5141835;27;20046;-78
2023/10/18 08:49:53;;;;;;;16.92;15.32;;;;;;;;;;5177963;27;20403;-78
2023/10/18 08:52:20;;;;;;;16.85;15.13;;;;;;;;;;5160098;27;20240;-78
2023/10/18 08:54:47;;;;;;;17.08;15.38;;;;;;;;;;5159150;27;20042;-78
2023/10/18 08:57:15;;;;;;;17.50;15.10;;;;;;;;;;5159078;27;20134;-78
2023/10/18 08:59:46;;;;;;;17.13;15.05;;;;;;;;;;5159036;27;20482;-78
2023/10/18 09:02:20;;;;;;;16.50;14.75;;;;;;;;;;5141795;27;20090;-78
2023/10/18 09:04:47;;;;;;;18.27;16.45;;;;;;;;;;5141306;27;20042;-78
2023/10/18 09:07:21;;;;;;;17.00;15.32;;;;;;;;;;5158728;27;20046;-78
2023/10/18 09:09:57;;;;;;;15.10;13.50;;;;;;;;;;5158980;27;20069;-78
2023/10/18 09:13:08;;;;;;;16.45;14.68;;;;;;;;;;5158821;27;20069;-79
2023/10/18 09:15:55;;;;;;;15.80;14.27;;;;;;;;;;5158742;27;20106;-79
2023/10/18 09:18:14;;;;;;;16.05;14.10;;;;;;;;;;5155657;27;20403;-79
2023/10/18 09:20:40;;;;;;;16.40;14.68;;;;;;;;;;5177079;27;20106;-78
2023/10/18 09:23:22;;;;;;;15.35;13.20;;;;;;;;;;5158961;27;20373;-78
2023/10/18 09:25:48;;;;;;;15.20;13.02;;;;;;;;;;5159187;27;20046;-78
2023/10/18 09:28:32;;;;;;;14.75;13.25;;;;;;;;;;5158196;27;20080;-78
2023/10/18 09:31:06;;;;;;;13.50;12.10;;;;;;;;;;5158796;27;20052;-79
2023/10/18 09:33:32;;;;;;;14.18;12.70;;;;;;;;;;5159111;27;20049;-79
2023/10/18 09:36:02;;;;;;;16.05;13.23;;;;;;;;;;5141030;27;20045;-79
2023/10/18 09:38:41;;;;;;;14.00;12.60;;;;;;;;;;5159161;27;20049;-79
2023/10/18 09:41:07;;;;;;;12.65;11.38;;;;;;;;;;5177167;27;20111;-81
2023/10/18 09:43:36;;;;;;;14.88;13.27;;;;;;;;;;5140936;27;20141;-80
2023/10/18 09:46:03;;;;;;;14.32;12.73;;;;;;;;;;5177253;27;20046;-79
2023/10/18 09:48:33;;;;;;;13.45;10.43;;;;;;;;;;5157890;27;20097;-79
2023/10/18 09:51:09;;;;;;;13.23;11.95;;;;;;;;;;5141388;27;20132;-79
2023/10/18 09:53:36;;;;;;;13.48;12.02;;;;;;;;;;5176588;27;20042;-79
2023/10/18 09:56:02;;;;;;;13.00;11.60;;;;;;;;;;5158075;27;20078;-79
2023/10/18 09:58:33;;;;;;;13.15;11.85;;;;;;;;;;5158129;27;20133;-79
2023/10/18 10:01:13;;;;;;;13.65;12.27;;;;;;;;;;5177070;27;20054;-78
2023/10/18 10:03:42;;;;;;;13.15;11.93;;;;;;;;;;5177303;27;20050;-79
2023/10/18 10:06:08;;;;;;;13.38;12.18;;;;;;;;;;5157911;27;20046;-79
2023/10/18 10:08:36;;;;;;;13.25;11.95;;;;;;;;;;5176783;27;20082;-78
2023/10/18 10:11:13;;;;;;;14.05;12.55;;;;;;;;;;5140391;27;20133;-79
2023/10/18 10:13:42;;;;;;;12.00;10.82;;;;;;;;;;5157195;27;20471;-79
2023/10/18 10:16:09;;;;;;;13.23;11.93;;;;;;;;;;5157822;27;20064;-79
2023/10/18 10:18:38;;;;;;;12.80;11.35;;;;;;;;;;5157792;27;20086;-80
2023/10/18 10:21:08;;;;;;;12.88;11.48;;;;;;;;;;5140323;27;20050;-78
2023/10/18 10:23:41;;;;;;;12.52;11.18;;;;;;;;;;5157591;27;20053;-78
2023/10/18 10:26:11;;;;;;;12.07;10.98;;;;;;;;;;5158628;27;20042;-78
2023/10/18 10:31:53;;;;;;;12.65;11.35;;;;;;;;;;5176743;27;20046;-79
2023/10/18 10:34:37;;;;;;;12.38;11.15;;;;;;;;;;5157625;27;20049;-79
2023/10/18 10:37:11;;;;;;;11.98;10.98;;;;;;;;;;5176713;27;20529;-78
2023/10/18 10:39:44;;;;;;;10.60;9.50;;;;;;;;;;5158633;27;20104;-79
2023/10/18 10:42:28;;;;;;;10.68;9.65;;;;;;;;;;5176592;27;20095;-79
2023/10/18 10:45:09;;;;;;;12.07;11.02;;;;;;;;;;5158481;27;20474;-79
2023/10/18 10:47:42;;;;;;;11.77;10.68;;;;;;;;;;5157909;27;20058;-78
2023/10/18 10:50:09;;;;;;;11.73;10.52;;;;;;;;;;5157948;27;20046;-78
2023/10/18 10:52:40;;;;;;;12.68;11.43;;;;;;;;;;5157303;27;20449;-79
2023/10/18 10:55:22;;;;;;;12.27;10.68;;;;;;;;;;5157827;27;20438;-79
2023/10/18 10:57:52;;;;;;;10.95;9.98;;;;;;;;;;5157480;27;20161;-79
2023/10/18 11:00:22;;;;;;;11.35;10.25;;;;;;;;;;5157387;27;20520;-79
2023/10/18 11:02:54;;;;;;;11.15;10.10;;;;;;;;;;5140264;27;20054;-80
2023/10/18 11:05:24;;;;;;;11.35;10.40;;;;;;;;;;5158129;27;20050;-79
2023/10/18 11:07:53;;;;;;;10.32;9.23;;;;;;;;;;5175788;27;20076;-79
2023/10/18 11:10:19;;;;;;;9.65;8.85;;;;;;;;;;5157793;27;20049;-79
2023/10/18 11:12:45;;;;;;;11.23;9.63;;;;;;;;;;5157929;27;20046;-79
2023/10/18 11:15:18;;;;;;;10.13;9.15;;;;;;;;;;5140092;27;20426;-79
2023/10/18 11:17:47;;;;;;;9.40;8.60;;;;;;;;;;5156785;27;20061;-81
2023/10/18 11:20:19;;;;;;;10.43;9.43;;;;;;;;;;5156821;27;20505;-79
2023/10/18 11:22:47;;;;;;;10.27;9.27;;;;;;;;;;5157487;27;20058;-80
2023/10/18 11:25:19;;;;;;;10.82;9.93;;;;;;;;;;5160737;27;20782;-79
2023/10/18 11:27:45;;;;;;;10.32;9.30;;;;;;;;;;5161171;27;20041;-80
2023/10/18 11:30:28;;;;;;;9.95;8.95;;;;;;;;;;5160760;27;20046;-80
2023/10/18 11:32:55;;;;;;;11.43;9.23;;;;;;;;;;5143231;27;20105;-80
2023/10/18 11:38:10;;;;;;;9.65;8.75;;;;;;;;;;5161495;27;20183;-79
2023/10/18 11:40:40;;;;;;;9.98;9.07;;;;;;;;;;5160039;27;20477;-80
2023/10/18 11:43:07;;;;;;;11.07;8.77;;;;;;;;;;5179635;27;20078;-79
2023/10/18 11:45:34;;;;;;;10.95;8.93;;;;;;;;;;5143302;27;20056;-79
2023/10/18 11:48:02;;;;;;;10.57;9.55;;;;;;;;;;5160038;27;20057;-79
2023/10/18 11:50:47;;;;;;;9.80;8.80;;;;;;;;;;5160190;27;20043;-79
2023/10/18 11:53:13;;;;;;;;;;;;;;;;;;5161446;27;20053;-80
2023/10/18 11:55:55;;;;;;;9.88;8.90;;;;;;;;;;5160316;27;19927;-79
2023/10/18 11:58:23;;;;;;;11.18;10.07;;;;;;;;;;5160327;27;20057;-79
2023/10/18 12:00:49;;;;;;;9.20;8.18;;;;;;;;;;5161098;27;20046;-79
2023/10/18 12:03:15;;;;;;;9.73;8.63;;;;;;;;;;5178665;27;20176;-80
2023/10/18 12:05:42;;;;;;;10.63;8.73;;;;;;;;;;5178434;27;20049;-80
2023/10/18 12:08:12;;;;;;;9.68;8.77;;;;;;;;;;5159733;27;20054;-79
2023/10/18 12:10:39;;;;;;;8.90;8.10;;;;;;;;;;5160941;27;20050;-79
2023/10/18 12:13:12;;;;;;;8.68;7.85;;;;;;;;;;5159882;27;20046;-80
2023/10/18 12:15:39;;;;;;;9.60;8.57;;;;;;;;;;5159989;27;20046;-80
2023/10/18 12:18:05;;;;;;;8.88;8.07;;;;;;;;;;5159649;27;20050;-79
2023/10/18 12:20:35;;;;;;;8.15;7.40;;;;;;;;;;5178149;27;20053;-79
2023/10/18 12:23:09;;;;;;;9.15;8.13;;;;;;;;;;5178162;27;20093;-79
2023/10/18 12:25:38;;;;;;;8.95;8.07;;;;;;;;;;5160591;27;20102;-80
2023/10/18 12:28:04;;;;;;;8.82;8.10;;;;;;;;;;5159406;27;20053;-79
2023/10/18 12:30:38;;;;;;;8.68;7.93;;;;;;;;;;5159623;27;20045;-79
2023/10/18 12:33:05;;;;;;;10.35;7.88;;;;;;;;;;5159946;27;20060;-79
2023/10/18 12:35:32;;;;;;;7.70;7.07;;;;;;;;;;5159131;27;20050;-79
2023/10/18 12:37:58;;;;;;;9.15;8.32;;;;;;;;;;5177884;27;20038;-80
2023/10/18 12:40:52;;;;;;;8.20;7.50;;;;;;;;;;5159047;27;20050;-79
2023/10/18 12:43:20;;;;;;;8.10;7.32;;;;;;;;;;5159722;27;20046;-80
2023/10/18 12:45:50;;;;;;;8.52;7.72;;;;;;;;;;5159106;27;20081;-79
2023/10/18 12:48:21;;;;;;;9.07;8.00;;;;;;;;;;5158922;27;20054;-79
2023/10/18 12:50:52;;;;;;;8.13;7.35;;;;;;;;;;5158920;27;20431;-79
2023/10/18 12:55:58;;;;;;;8.50;7.70;;;;;;;;;;5159505;27;20434;-78
2023/10/18 12:58:31;;;;;;;9.13;8.23;;;;;;;;;;5160074;27;20050;-79
2023/10/18 13:01:08;;;;;;;8.63;7.90;;;;;;;;;;5141529;27;20535;-78
2023/10/18 13:03:37;;;;;;;8.50;7.70;;;;;;;;;;5177568;27;20053;-80
2023/10/18 13:06:08;;;;;;;8.85;7.80;;;;;;;;;;5159783;27;20068;-80
2023/10/18 13:08:37;;;;;;;8.20;7.60;;;;;;;;;;5158862;27;20054;-79
2023/10/18 13:13:30;;;;;;;9.35;8.52;;;;;;;;;;5141287;27;20050;-79
2023/10/18 13:15:59;;;;;;;8.90;8.02;;;;;;;;;;5159395;27;20050;-79
2023/10/18 13:18:26;;;;;;;8.45;7.60;;;;;;;;;;5177102;27;20041;-80
2023/10/18 13:20:54;;;;;;;8.40;7.80;;;;;;;;;;5141609;27;20431;-79
2023/10/18 13:23:21;;;;;;;8.85;8.05;;;;;;;;;;5158349;27;20050;-80
2023/10/18 13:25:51;;;;;;;9.45;8.23;;;;;;;;;;5158374;27;20048;-80
2023/10/18 13:28:47;;;;;;;11.00;7.53;;;;;;;;;;5141744;27;20038;-80
2023/10/18 13:31:22;;;;;;;13.05;6.97;;;;;;;;;;5159417;27;20046;-79
2023/10/18 13:33:52;;;;;;;8.65;7.90;;;;;;;;;;5158843;27;20046;-79
2023/10/18 13:36:21;;;;;;;8.95;8.05;;;;;;;;;;5176757;27;20054;-79
2023/10/18 13:38:49;;;;;;;9.23;7.57;;;;;;;;;;5159225;27;20115;-79
2023/10/18 13:41:15;;;;;;;9.30;8.50;;;;;;;;;;5142205;27;20046;-79
2023/10/18 13:43:41;;;;;;;9.25;8.25;;;;;;;;;;5176717;27;20121;-80
2023/10/18 13:46:17;;;;;;;9.70;8.80;;;;;;;;;;5158040;27;20064;-79
2023/10/18 13:48:43;;;;;;;9.00;8.25;;;;;;;;;;5139968;27;20091;-79
2023/10/18 13:51:13;;;;;;;10.43;8.23;;;;;;;;;;5176573;27;20060;-79
2023/10/18 13:53:40;;;;;;;9.57;8.40;;;;;;;;;;5158006;27;20432;-79
2023/10/18 13:56:09;;;;;;;8.93;8.13;;;;;;;;;;5158178;27;20050;-79
2023/10/18 13:58:36;;;;;;;9.32;8.07;;;;;;;;;;5158396;27;20439;-79
2023/10/18 14:01:05;;;;;;;23.65;15.02;;;;;;;;;;5176463;27;20042;-79
2023/10/18 14:03:32;;;;;;;9.82;8.88;;;;;;;;;;5158937;27;20381;-80
2023/10/18 14:05:59;;;;;;;8.75;7.90;;;;;;;;;;5176360;27;20118;-79
2023/10/18 14:08:25;;;;;;;8.77;7.35;;;;;;;;;;5176278;27;20034;-79
2023/10/18 14:10:54;;;;;;;10.07;8.20;;;;;;;;;;5124415;27;20053;-80
2023/10/18 14:13:24;;;;;;;8.95;8.15;;;;;;;;;;5140252;27;20110;-81
2023/10/18 14:15:51;;;;;;;8.93;8.05;;;;;;;;;;5158057;27;20527;-80
2023/10/18 14:18:17;;;;;;;7.90;7.10;;;;;;;;;;5158170;27;20042;-79
2023/10/18 14:20:52;;;;;;;8.80;7.90;;;;;;;;;;5176234;27;20125;-79
2023/10/18 14:23:27;;;;;;;8.98;6.82;;;;;;;;;;5141900;27;20050;-81
2023/10/18 14:25:54;;;;;;;8.63;7.75;;;;;;;;;;5158417;27;20114;-79
2023/10/18 14:28:21;;;;;;;8.77;8.00;;;;;;;;;;5157379;27;20053;-79
2023/10/18 14:30:47;;;;;;;7.88;7.07;;;;;;;;;;5176009;27;20058;-79
2023/10/18 14:33:14;;;;;;;9.45;8.02;;;;;;;;;;5157671;27;20050;-79
2023/10/18 14:35:40;;;;;;;8.95;7.65;;;;;;;;;;5176724;27;20038;-80
2023/10/18 14:38:12;;;;;;;7.45;6.75;;;;;;;;;;5158342;27;20069;-79
2023/10/18 14:40:42;;;;;;;8.07;7.38;;;;;;;;;;5141622;27;20050;-79
2023/10/18 14:43:08;;;;;;;9.43;8.50;;;;;;;;;;5158422;27;20055;-79
2023/10/18 14:45:35;;;;;;;9.18;8.27;;;;;;;;;;5141112;27;20042;-79
2023/10/18 14:48:02;;;;;;;9.60;8.60;;;;;;;;;;5140099;27;20046;-79
2023/10/18 14:50:28;;;;;;;9.35;8.52;;;;;;;;;;5158471;27;20058;-78
2023/10/18 14:52:54;;;;;;;9.65;8.20;;;;;;;;;;5175984;27;20049;-79
2023/10/18 14:55:22;;;;;;;9.80;8.80;;;;;;;;;;5157665;27;20064;-78
2023/10/18 14:57:48;;;;;;;10.18;9.18;;;;;;;;;;5176535;27;20458;-79
2023/10/18 15:00:19;;;;;;;8.95;8.15;;;;;;;;;;5144731;27;20364;-79
2023/10/18 15:02:52;;;;;;;10.80;8.75;;;;;;;;;;5162830;27;20085;-79
2023/10/18 15:05:20;;;;;;;10.65;9.65;;;;;;;;;;5161308;27;20046;-78
2023/10/18 15:07:47;;;;;;;11.57;9.85;;;;;;;;;;5143975;27;20034;-78
2023/10/18 15:10:15;;;;;;;10.15;9.07;;;;;;;;;;5161408;27;20042;-78
2023/10/18 15:12:41;;;;;;;10.90;9.80;;;;;;;;;;5180896;27;20042;-78
2023/10/18 15:15:09;;;;;;;11.15;9.63;;;;;;;;;;5179648;27;20042;-78
2023/10/18 15:17:35;;;;;;;11.55;10.35;;;;;;;;;;5161095;27;20133;-79
2023/10/18 15:20:01;;;;;;;11.73;10.50;;;;;;;;;;5161930;27;20042;-78
2023/10/18 15:22:27;;;;;;;12.90;10.27;;;;;;;;;;5161181;27;20046;-79
2023/10/18 15:24:59;;;;;;;11.80;10.60;;;;;;;;;;5161443;27;20120;-79
2023/10/18 15:27:26;;;;;;;13.23;10.63;;;;;;;;;;5161255;27;20121;-78